createdAt,value
2024-03-05T00:01:38.830Z,101418.28
2024-03-05T00:04:09.531Z,101425.72
2024-03-05T00:06:39.015Z,101423.03
2024-03-05T00:09:06.819Z,101427.16
2024-03-05T00:11:34.734Z,101419.38
2024-03-05T00:14:02.595Z,101423.25
2024-03-05T00:16:30.612Z,101427.66
2024-03-05T00:18:58.244Z,101421.44
2024-03-05T00:21:26.152Z,101422.84
2024-03-05T00:23:53.849Z,101418.31
2024-03-05T00:26:22.939Z,101427.94
2024-03-05T00:28:50.987Z,101426.28
2024-03-05T00:31:18.834Z,101424.50
2024-03-05T00:33:47.966Z,101423.94
2024-03-05T00:36:15.689Z,101427.03
2024-03-05T00:38:43.499Z,101427.97
2024-03-05T00:41:11.198Z,101422.28
2024-03-05T00:43:38.904Z,101428.28
2024-03-05T00:46:07.345Z,101437.81
2024-03-05T00:48:35.211Z,101439.56
2024-03-05T00:51:03.669Z,101439.47
2024-03-05T00:53:31.635Z,101437.31
2024-03-05T00:55:59.327Z,101441.03
2024-03-05T00:58:27.613Z,101436.56
2024-03-05T01:00:55.725Z,101435.72
2024-03-05T01:03:23.351Z,101440.91
2024-03-05T01:05:50.980Z,101443.72
2024-03-05T01:08:18.655Z,101443.50
2024-03-05T01:10:47.214Z,101445.91
2024-03-05T01:13:15.813Z,101441.44
2024-03-05T01:15:43.518Z,101433.47
2024-03-05T01:18:11.270Z,101438.59
2024-03-05T01:20:42.777Z,101435.00
2024-03-05T01:23:13.339Z,101433.63
2024-03-05T01:25:41.266Z,101438.69
2024-03-05T01:28:09.154Z,101444.13
2024-03-05T01:30:38.152Z,101441.72
2024-03-05T01:33:07.155Z,101440.25
2024-03-05T01:35:34.791Z,101440.75
2024-03-05T01:38:02.414Z,101438.72
2024-03-05T01:40:30.248Z,101439.06
2024-03-05T01:42:59.033Z,101436.72
2024-03-05T01:45:27.218Z,101436.06
2024-03-05T01:47:54.962Z,101437.59
2024-03-05T01:50:23.917Z,101430.22
2024-03-05T01:52:51.853Z,101431.31
2024-03-05T01:55:20.509Z,101430.91
2024-03-05T01:57:49.807Z,101424.47
2024-03-05T02:00:17.625Z,101418.94
2024-03-05T02:02:45.372Z,101420.75
2024-03-05T02:05:14.023Z,101434.75
2024-03-05T02:07:42.179Z,101429.44
2024-03-05T02:10:10.351Z,101428.28
2024-03-05T02:12:38.240Z,101431.88
2024-03-05T02:15:06.306Z,101424.19
2024-03-05T02:17:33.975Z,101429.09
2024-03-05T02:20:02.498Z,101428.31
2024-03-05T02:22:30.150Z,101436.25
2024-03-05T02:24:57.754Z,101430.94
2024-03-05T02:27:30.460Z,101433.53
2024-03-05T02:30:04.169Z,101433.53
2024-03-05T02:32:32.227Z,101436.91
2024-03-05T02:35:00.041Z,101432.56
2024-03-05T02:37:28.019Z,101438.06
2024-03-05T02:39:55.675Z,101436.84
2024-03-05T02:42:24.078Z,101426.34
2024-03-05T02:44:51.670Z,101426.34
2024-03-05T02:47:19.275Z,101431.13
2024-03-05T02:49:47.134Z,101428.38
2024-03-05T02:52:15.290Z,101434.13
2024-03-05T02:54:42.819Z,101428.75
2024-03-05T02:57:10.438Z,101425.25
2024-03-05T02:59:38.045Z,101417.72
2024-03-05T03:02:06.413Z,101424.38
2024-03-05T03:04:34.130Z,101425.41
2024-03-05T03:07:01.757Z,101426.59
2024-03-05T03:09:29.963Z,101428.03
2024-03-05T03:11:58.182Z,101429.56
2024-03-05T03:14:25.749Z,101427.72
2024-03-05T03:16:53.758Z,101426.69
2024-03-05T03:19:21.475Z,101428.44
2024-03-05T03:21:49.049Z,101436.19
2024-03-05T03:24:16.668Z,101418.88
2024-03-05T03:26:44.288Z,101433.56
2024-03-05T03:29:14.890Z,101437.59
2024-03-05T03:31:48.243Z,101435.66
2024-03-05T03:34:18.848Z,101433.94
2024-03-05T03:36:46.519Z,101433.50
2024-03-05T03:39:25.003Z,101434.78
2024-03-05T03:41:54.842Z,101429.56
2024-03-05T03:44:23.777Z,101434.47
2024-03-05T03:46:51.869Z,101432.03
2024-03-05T03:49:21.316Z,101436.13
2024-03-05T03:51:48.961Z,101428.34
2024-03-05T03:54:16.571Z,101418.00
2024-03-05T03:56:44.193Z,101430.81
2024-03-05T03:59:12.014Z,101421.44
2024-03-05T04:01:39.662Z,101419.69
2024-03-05T04:04:07.269Z,101424.88
2024-03-05T04:06:34.873Z,101425.38
2024-03-05T04:09:02.501Z,101425.94
2024-03-05T04:11:30.127Z,101423.28
2024-03-05T04:13:58.492Z,101431.63
2024-03-05T04:16:26.942Z,101420.50
2024-03-05T04:18:55.095Z,101429.94
2024-03-05T04:21:22.807Z,101435.16
2024-03-05T04:23:50.660Z,101433.41
2024-03-05T04:26:24.668Z,101442.66
2024-03-05T04:28:54.219Z,101437.13
2024-03-05T04:31:25.055Z,101436.03
2024-03-05T04:34:00.338Z,101441.84
2024-03-05T04:36:27.977Z,101446.72
2024-03-05T04:38:55.552Z,101439.50
2024-03-05T04:41:23.628Z,101448.13
2024-03-05T04:43:51.762Z,101443.44
2024-03-05T04:46:19.717Z,101446.06
2024-03-05T04:48:49.129Z,101446.97
2024-03-05T04:51:16.794Z,101443.50
2024-03-05T04:53:44.619Z,101442.25
2024-03-05T04:56:13.676Z,101435.81
2024-03-05T04:58:41.316Z,101435.16
2024-03-05T05:01:08.970Z,101435.84
2024-03-05T05:03:36.847Z,101440.97
2024-03-05T05:06:04.556Z,101432.59
2024-03-05T05:08:32.154Z,101420.84
2024-03-05T05:11:00.074Z,101431.69
2024-03-05T05:13:27.945Z,101431.31
2024-03-05T05:15:59.754Z,101430.34
2024-03-05T05:18:27.351Z,101437.91
2024-03-05T05:20:54.949Z,101437.91
2024-03-05T05:23:22.548Z,101438.69
2024-03-05T05:25:50.150Z,101435.31
2024-03-05T05:28:17.803Z,101440.59
2024-03-05T05:30:45.496Z,101442.47
2024-03-05T05:33:13.471Z,101440.59
2024-03-05T05:35:41.476Z,101442.00
2024-03-05T05:38:12.049Z,101439.13
2024-03-05T05:40:39.729Z,101444.84
2024-03-05T05:43:09.378Z,101442.94
2024-03-05T05:45:37.091Z,101444.63
2024-03-05T05:48:05.053Z,101444.81
2024-03-05T05:50:33.085Z,101444.63
2024-03-05T05:53:01.264Z,101452.28
2024-03-05T05:55:29.857Z,101454.75
2024-03-05T05:57:58.552Z,101455.59
2024-03-05T06:00:34.501Z,101453.91
2024-03-05T06:03:06.018Z,101447.00
2024-03-05T06:05:36.417Z,101447.00
2024-03-05T06:08:16.151Z,101449.63
2024-03-05T06:10:44.305Z,101453.81
2024-03-05T06:13:12.315Z,101450.31
2024-03-05T06:15:40.230Z,101446.00
2024-03-05T06:18:08.069Z,101446.88
2024-03-05T06:20:35.709Z,101450.38
2024-03-05T06:23:04.106Z,101452.94
2024-03-05T06:25:31.821Z,101458.13
2024-03-05T06:28:00.533Z,101455.44
2024-03-05T06:30:28.073Z,101451.25
2024-03-05T06:32:55.798Z,101458.94
2024-03-05T06:35:25.332Z,101456.38
2024-03-05T06:37:55.082Z,101452.06
2024-03-05T06:40:25.266Z,101458.94
2024-03-05T06:42:54.258Z,101457.25
2024-03-05T06:45:29.372Z,101460.69
2024-03-05T06:50:35.718Z,101471.78
2024-03-05T06:53:22.440Z,101466.59
2024-03-05T06:56:09.028Z,101467.63
2024-03-05T06:58:37.347Z,101469.25
2024-03-05T07:01:08.628Z,101473.94
2024-03-05T07:03:36.490Z,101467.19
2024-03-05T07:06:14.664Z,101472.97
2024-03-05T07:08:45.883Z,101471.88
2024-03-05T07:11:14.387Z,101473.06
2024-03-05T07:13:45.035Z,101467.84
2024-03-05T07:16:18.002Z,101460.06
2024-03-05T07:18:52.357Z,101472.16
2024-03-05T07:21:21.889Z,101469.47
2024-03-05T07:23:50.358Z,101463.78
2024-03-05T07:26:18.157Z,101462.59
2024-03-05T07:28:46.362Z,101461.28
2024-03-05T07:31:15.207Z,101467.69
2024-03-05T07:33:43.372Z,101462.44
2024-03-05T07:36:10.934Z,101466.59
2024-03-05T07:38:39.809Z,101469.16
2024-03-05T07:41:17.513Z,101475.91
2024-03-05T07:43:50.807Z,101476.94
2024-03-05T07:46:21.234Z,101468.44
2024-03-05T07:48:48.816Z,101482.91
2024-03-05T07:51:23.949Z,101482.03
2024-03-05T07:53:52.979Z,101478.69
2024-03-05T07:56:20.559Z,101472.19
2024-03-05T07:58:48.199Z,101480.59
2024-03-05T08:01:15.900Z,101476.13
2024-03-05T08:03:43.506Z,101477.03
2024-03-05T08:06:11.091Z,101482.72
2024-03-05T08:08:38.761Z,101477.81
2024-03-05T08:11:06.430Z,101477.88
2024-03-05T08:13:37.148Z,101481.25
2024-03-05T08:16:05.920Z,101478.59
2024-03-05T08:18:33.772Z,101477.75
2024-03-05T08:21:03.000Z,101470.56
2024-03-05T08:23:30.725Z,101474.28
2024-03-05T08:25:58.432Z,101476.59
2024-03-05T08:28:26.229Z,101474.69
2024-03-05T08:30:55.323Z,101479.41
2024-03-05T08:33:25.480Z,101476.34
2024-03-05T08:35:53.365Z,101478.81
2024-03-05T08:38:22.401Z,101476.13
2024-03-05T08:40:51.508Z,101476.25
2024-03-05T08:43:19.409Z,101481.59
2024-03-05T08:45:48.088Z,101481.69
2024-03-05T08:48:15.774Z,101488.84
2024-03-05T08:50:43.402Z,101488.91
2024-03-05T08:53:11.296Z,101494.38
2024-03-05T08:55:40.423Z,101497.53
2024-03-05T08:58:10.572Z,101502.59
2024-03-05T09:00:43.291Z,101502.88
2024-03-05T09:03:13.462Z,101499.56
2024-03-05T09:05:44.372Z,101506.34
2024-03-05T09:08:15.327Z,101506.09
2024-03-05T09:10:44.638Z,101507.31
2024-03-05T09:13:12.281Z,101504.84
2024-03-05T09:15:43.767Z,101510.06
2024-03-05T09:18:14.731Z,101508.50
2024-03-05T09:20:43.498Z,101509.41
2024-03-05T09:23:11.454Z,101505.28
2024-03-05T09:25:43.556Z,101506.53
2024-03-05T09:28:12.193Z,101502.41
2024-03-05T09:30:40.532Z,101511.84
2024-03-05T09:33:11.676Z,101507.22
2024-03-05T09:35:40.325Z,101506.38
2024-03-05T09:38:08.780Z,101515.34
2024-03-05T09:40:36.807Z,101508.81
2024-03-05T09:43:05.745Z,101510.56
2024-03-05T09:45:37.709Z,101508.13
2024-03-05T09:48:06.306Z,101502.16
2024-03-05T09:50:34.799Z,101505.91
2024-03-05T09:53:02.735Z,101509.94
2024-03-05T09:55:32.095Z,101510.75
2024-03-05T09:58:04.945Z,101512.69
2024-03-05T10:00:33.235Z,101515.88
2024-03-05T10:03:00.884Z,101514.50
2024-03-05T10:05:29.043Z,101512.31
2024-03-05T10:07:56.669Z,101518.41
2024-03-05T10:10:26.816Z,101518.38
2024-03-05T10:12:54.358Z,101523.56
2024-03-05T10:15:27.019Z,101519.16
2024-03-05T10:17:56.556Z,101523.66
2024-03-05T10:20:28.638Z,101522.34
2024-03-05T10:22:59.755Z,101527.88
2024-03-05T10:25:31.836Z,101521.59
2024-03-05T10:28:00.985Z,101527.75
2024-03-05T10:30:34.166Z,101519.72
2024-03-05T10:33:03.948Z,101519.34
2024-03-05T10:35:33.271Z,101518.84
2024-03-05T10:38:01.967Z,101518.13
2024-03-05T10:40:33.613Z,101523.44
2024-03-05T10:43:02.510Z,101524.25
2024-03-05T10:45:31.933Z,101531.25
2024-03-05T10:48:00.499Z,101537.34
2024-03-05T10:50:29.184Z,101532.22
2024-03-05T10:52:57.773Z,101539.44
2024-03-05T10:55:26.160Z,101534.97
2024-03-05T10:58:13.325Z,101532.94
2024-03-05T11:00:43.111Z,101535.03
2024-03-05T11:03:11.651Z,101534.16
2024-03-05T11:05:49.247Z,101528.41
2024-03-05T11:08:22.950Z,101530.63
2024-03-05T11:11:11.334Z,101528.38
2024-03-05T11:13:40.517Z,101535.50
2024-03-05T11:16:09.750Z,101530.63
2024-03-05T11:18:38.531Z,101535.38
2024-03-05T11:21:10.898Z,101532.88
2024-03-05T11:23:41.665Z,101541.28
2024-03-05T11:26:17.886Z,101543.38
2024-03-05T11:28:45.561Z,101542.63
2024-03-05T11:31:21.081Z,101547.28
2024-03-05T11:33:58.732Z,101545.28
2024-03-05T11:36:26.340Z,101540.69
2024-03-05T11:39:02.929Z,101538.75
2024-03-05T11:41:37.939Z,101544.19
2024-03-05T11:44:06.074Z,101546.09
2024-03-05T11:46:39.885Z,101543.59
2024-03-05T11:49:08.162Z,101539.38
2024-03-05T11:51:36.071Z,101544.09
2024-03-05T11:54:03.672Z,101536.44
2024-03-05T11:56:31.579Z,101535.41
2024-03-05T11:58:59.266Z,101542.41
2024-03-05T12:01:27.150Z,101544.28
2024-03-05T12:04:04.909Z,101537.25
2024-03-05T12:06:32.608Z,101543.03
2024-03-05T12:09:20.329Z,101537.78
2024-03-05T12:12:05.086Z,101542.16
2024-03-05T12:14:34.316Z,101544.25
2024-03-05T12:17:05.251Z,101544.72
2024-03-05T12:19:33.441Z,101534.97
2024-03-05T12:22:01.641Z,101536.75
2024-03-05T12:24:29.724Z,101536.03
2024-03-05T12:26:58.438Z,101536.91
2024-03-05T12:29:32.124Z,101537.84
2024-03-05T12:32:03.057Z,101529.44
2024-03-05T12:34:30.797Z,101538.19
2024-03-05T12:36:58.373Z,101541.72
2024-03-05T12:39:26.123Z,101538.22
2024-03-05T12:42:06.949Z,101540.84
2024-03-05T12:44:35.162Z,101533.94
2024-03-05T12:47:14.350Z,101533.84
2024-03-05T12:49:45.889Z,101530.69
2024-03-05T12:52:18.542Z,101539.44
2024-03-05T12:54:46.424Z,101531.53
2024-03-05T12:57:30.938Z,101535.97
2024-03-05T13:00:02.068Z,101534.25
2024-03-05T13:02:30.180Z,101541.97
2024-03-05T13:04:59.354Z,101541.59
2024-03-05T13:07:27.955Z,101534.72
2024-03-05T13:09:55.867Z,101538.75
2024-03-05T13:12:24.701Z,101534.25
2024-03-05T13:14:52.474Z,101535.56
2024-03-05T13:17:20.962Z,101544.47
2024-03-05T13:19:48.600Z,101537.28
2024-03-05T13:22:16.568Z,101547.19
2024-03-05T13:24:44.592Z,101553.63
2024-03-05T13:27:13.708Z,101549.34
2024-03-05T13:29:41.499Z,101541.44
2024-03-05T13:32:09.172Z,101548.91
2024-03-05T13:34:36.822Z,101542.72
2024-03-05T13:37:04.699Z,101546.75
2024-03-05T13:39:32.608Z,101545.50
2024-03-05T13:42:00.294Z,101547.34
2024-03-05T13:44:28.718Z,101549.03
2024-03-05T13:46:56.382Z,101544.88
2024-03-05T13:49:25.523Z,101544.53
2024-03-05T13:51:53.445Z,101545.97
2024-03-05T13:54:21.068Z,101549.44
2024-03-05T13:56:50.311Z,101550.56
2024-03-05T13:59:18.227Z,101554.19
2024-03-05T14:01:45.819Z,101551.81
2024-03-05T14:04:13.451Z,101549.88
2024-03-05T14:06:42.519Z,101547.47
2024-03-05T14:09:10.720Z,101550.72
2024-03-05T14:11:41.726Z,101552.59
2024-03-05T14:14:09.924Z,101550.28
2024-03-05T14:16:40.054Z,101550.50
2024-03-05T14:19:08.950Z,101543.34
2024-03-05T14:21:37.158Z,101544.63
2024-03-05T14:24:05.018Z,101549.41
2024-03-05T14:26:32.715Z,101543.66
2024-03-05T14:29:05.298Z,101551.63
2024-03-05T14:31:34.586Z,101550.81
2024-03-05T14:34:02.480Z,101545.25
2024-03-05T14:36:32.639Z,101557.66
2024-03-05T14:39:03.028Z,101554.63
2024-03-05T14:41:30.834Z,101549.31
2024-03-05T14:43:58.574Z,101548.75
2024-03-05T14:46:26.498Z,101558.97
2024-03-05T14:48:54.300Z,101552.63
2024-03-05T14:51:25.457Z,101570.22
2024-03-05T14:53:59.545Z,101566.31
2024-03-05T14:56:31.367Z,101563.75
2024-03-05T14:58:59.270Z,101564.69
2024-03-05T15:01:27.200Z,101566.91
2024-03-05T15:03:54.951Z,101569.97
2024-03-05T15:06:22.742Z,101574.13
2024-03-05T15:08:50.675Z,101574.75
2024-03-05T15:11:18.668Z,101570.84
2024-03-05T15:13:46.443Z,101569.03
2024-03-05T15:16:15.123Z,101574.22
2024-03-05T15:18:42.844Z,101581.31
2024-03-05T15:21:15.492Z,101575.16
2024-03-05T15:23:43.809Z,101572.22
2024-03-05T15:26:11.991Z,101582.81
2024-03-05T15:28:42.356Z,101582.78
2024-03-05T15:31:11.897Z,101584.59
2024-03-05T15:33:40.267Z,101593.34
2024-03-05T15:36:08.631Z,101584.69
2024-03-05T15:38:36.616Z,101595.34
2024-03-05T15:41:08.034Z,101584.06
2024-03-05T15:43:37.134Z,101589.06
2024-03-05T15:46:07.890Z,101598.34
2024-03-05T15:48:35.787Z,101595.19
2024-03-05T15:51:04.404Z,101601.19
2024-03-05T15:53:32.305Z,101595.78
2024-03-05T15:56:02.943Z,101607.88
2024-03-05T15:58:57.251Z,101605.91
2024-03-05T16:01:27.277Z,101616.81
2024-03-05T16:04:09.238Z,101622.56
2024-03-05T16:06:43.113Z,101619.97
2024-03-05T16:09:10.804Z,101614.03
2024-03-05T16:11:38.765Z,101615.41
2024-03-05T16:14:06.925Z,101618.75
2024-03-05T16:16:38.961Z,101626.25
2024-03-05T16:19:07.510Z,101623.72
2024-03-05T16:21:35.365Z,101631.25
2024-03-05T16:24:06.265Z,101634.72
2024-03-05T16:26:34.291Z,101640.09
2024-03-05T16:29:02.095Z,101641.34
2024-03-05T16:31:29.979Z,101638.63
2024-03-05T16:34:02.345Z,101640.81
2024-03-05T16:36:30.162Z,101640.66
2024-03-05T16:38:57.963Z,101644.16
2024-03-05T16:41:25.671Z,101651.38
2024-03-05T16:43:55.215Z,101654.50
2024-03-05T16:46:22.985Z,101653.41
2024-03-05T16:48:50.720Z,101661.72
2024-03-05T16:51:18.412Z,101663.81
2024-03-05T16:53:46.279Z,101663.88
2024-03-05T16:56:14.072Z,101657.16
2024-03-05T16:58:43.189Z,101661.66
2024-03-05T17:01:13.986Z,101660.25
2024-03-05T17:03:46.285Z,101663.22
2024-03-05T17:06:20.250Z,101662.97
2024-03-05T17:08:50.620Z,101664.13
2024-03-05T17:11:18.858Z,101674.81
2024-03-05T17:13:49.607Z,101675.22
2024-03-05T17:16:18.642Z,101670.63
2024-03-05T17:18:46.770Z,101671.59
2024-03-05T17:21:14.796Z,101681.03
2024-03-05T17:23:46.394Z,101682.00
2024-03-05T17:26:16.663Z,101692.41
2024-03-05T17:28:44.996Z,101689.53
2024-03-05T17:31:13.164Z,101690.53
2024-03-05T17:33:40.868Z,101697.31
2024-03-05T17:36:08.913Z,101698.66
2024-03-05T17:38:36.506Z,101703.25
2024-03-05T17:41:04.923Z,101701.03
2024-03-05T17:43:32.763Z,101711.66
2024-03-05T17:46:02.570Z,101715.09
2024-03-05T17:48:31.026Z,101710.91
2024-03-05T17:51:02.045Z,101720.47
2024-03-05T17:53:29.772Z,101717.16
2024-03-05T17:55:57.578Z,101719.06
2024-03-05T17:58:25.584Z,101722.78
2024-03-05T18:00:53.618Z,101719.38
2024-03-05T18:03:22.783Z,101723.44
2024-03-05T18:05:50.759Z,101727.34
2024-03-05T18:08:18.564Z,101730.03
2024-03-05T18:10:47.121Z,101728.88
2024-03-05T18:13:17.006Z,101733.31
2024-03-05T18:15:46.829Z,101739.69
2024-03-05T18:18:15.866Z,101740.97
2024-03-05T18:20:45.006Z,101739.88
2024-03-05T18:23:14.326Z,101744.19
2024-03-05T18:25:43.339Z,101746.75
2024-03-05T18:28:11.277Z,101752.91
2024-03-05T18:30:40.113Z,101750.97
2024-03-05T18:33:09.632Z,101747.69
2024-03-05T18:35:40.778Z,101757.31
2024-03-05T18:40:41.531Z,101753.16
2024-03-05T18:43:11.105Z,101749.78
2024-03-05T18:45:41.207Z,101754.78
2024-03-05T18:48:10.520Z,101758.19
2024-03-05T18:50:39.118Z,101755.25
2024-03-05T18:53:09.254Z,101751.78
2024-03-05T18:55:38.017Z,101758.88
2024-03-05T18:58:09.647Z,101755.66
2024-03-05T19:00:38.495Z,101756.97
2024-03-05T19:03:06.751Z,101762.19
2024-03-05T19:05:37.917Z,101765.63
2024-03-05T19:08:08.757Z,101755.75
2024-03-05T19:10:38.312Z,101762.22
2024-03-05T19:13:07.220Z,101772.38
2024-03-05T19:15:34.939Z,101767.13
2024-03-05T19:18:05.650Z,101757.81
2024-03-05T19:20:33.476Z,101767.94
2024-03-05T19:23:01.614Z,101772.38
2024-03-05T19:25:29.611Z,101760.53
2024-03-05T19:27:57.692Z,101769.03
2024-03-05T19:30:25.660Z,101777.78
2024-03-05T19:32:53.421Z,101774.19
2024-03-05T19:35:26.368Z,101773.88
2024-03-05T19:37:55.168Z,101772.94
2024-03-05T19:40:25.337Z,101778.75
2024-03-05T19:42:59.246Z,101773.38
2024-03-05T19:45:30.833Z,101777.22
2024-03-05T19:47:59.278Z,101780.56
2024-03-05T19:50:28.037Z,101779.69
2024-03-05T19:52:57.469Z,101786.19
2024-03-05T19:55:25.584Z,101780.53
2024-03-05T19:57:53.629Z,101778.16
2024-03-05T20:00:25.046Z,101786.31
2024-03-05T20:02:55.082Z,101785.16
2024-03-05T20:05:23.800Z,101786.25
2024-03-05T20:07:53.612Z,101781.78
2024-03-05T20:10:22.636Z,101784.72
2024-03-05T20:12:50.580Z,101784.63
2024-03-05T20:15:19.090Z,101790.59
2024-03-05T20:17:47.618Z,101788.50
2024-03-05T20:20:19.392Z,101782.31
2024-03-05T20:22:49.103Z,101786.31
2024-03-05T20:25:22.568Z,101792.88
2024-03-05T20:27:52.558Z,101791.13
2024-03-05T20:30:20.874Z,101791.31
2024-03-05T20:32:48.966Z,101804.69
2024-03-05T20:35:18.473Z,101803.25
2024-03-05T20:37:51.919Z,101801.91
2024-03-05T20:40:23.959Z,101811.19
2024-03-05T20:42:51.709Z,101809.81
2024-03-05T20:45:20.041Z,101803.00
2024-03-05T20:47:49.699Z,101805.81
2024-03-05T20:50:19.408Z,101811.97
2024-03-05T20:52:47.168Z,101811.97
2024-03-05T20:55:14.787Z,101809.56
2024-03-05T20:57:46.109Z,101809.63
2024-03-05T21:00:21.851Z,101820.72
2024-03-05T21:02:53.039Z,101813.41
2024-03-05T21:05:20.873Z,101817.97
2024-03-05T21:07:55.133Z,101827.22
2024-03-05T21:10:23.149Z,101817.09
2024-03-05T21:12:50.880Z,101822.38
2024-03-05T21:15:21.575Z,101823.91
2024-03-05T21:17:49.602Z,101843.16
2024-03-05T21:20:17.611Z,101837.75
2024-03-05T21:22:45.697Z,101834.81
2024-03-05T21:25:13.394Z,101836.38
2024-03-05T21:27:42.081Z,101841.47
2024-03-05T21:30:10.639Z,101846.69
2024-03-05T21:32:38.417Z,101843.75
2024-03-05T21:35:06.975Z,101846.94
2024-03-05T21:37:37.146Z,101851.63
2024-03-05T21:40:08.946Z,101852.06
2024-03-05T21:42:36.757Z,101853.88
2024-03-05T21:45:04.724Z,101848.44
2024-03-05T21:47:32.533Z,101850.78
2024-03-05T21:50:01.288Z,101856.84
2024-03-05T21:52:29.210Z,101859.28
2024-03-05T21:54:56.768Z,101856.72
2024-03-05T21:57:24.451Z,101857.13
2024-03-05T21:59:52.140Z,101853.13
2024-03-05T22:02:19.722Z,101855.56
2024-03-05T22:04:47.375Z,101854.00
2024-03-05T22:07:15.046Z,101856.19
2024-03-05T22:09:42.780Z,101854.31
2024-03-05T22:12:10.588Z,101855.44
2024-03-05T22:14:39.614Z,101857.41
2024-03-05T22:17:10.146Z,101853.25
2024-03-05T22:19:38.374Z,101855.69
2024-03-05T22:22:06.197Z,101861.91
2024-03-05T22:24:33.826Z,101861.91
2024-03-05T22:27:01.533Z,101871.44
2024-03-05T22:29:29.281Z,101874.31
2024-03-05T22:31:57.303Z,101870.53
2024-03-05T22:34:25.314Z,101870.19
2024-03-05T22:36:53.037Z,101876.84
2024-03-05T22:39:20.983Z,101877.84
2024-03-05T22:41:48.742Z,101878.19
2024-03-05T22:44:16.550Z,101872.78
2024-03-05T22:46:44.243Z,101876.56
2024-03-05T22:49:12.058Z,101868.72
2024-03-05T22:51:39.605Z,101873.06
2024-03-05T22:54:07.539Z,101876.41
2024-03-05T22:56:35.142Z,101881.41
2024-03-05T22:59:02.803Z,101872.50
2024-03-05T23:01:30.641Z,101873.50
2024-03-05T23:03:58.287Z,101875.41
2024-03-05T23:06:26.803Z,101885.81
2024-03-05T23:08:55.180Z,101879.72
2024-03-05T23:11:22.922Z,101875.81
2024-03-05T23:13:50.648Z,101877.06
2024-03-05T23:16:18.233Z,101885.72
2024-03-05T23:18:45.769Z,101881.69
2024-03-05T23:21:13.321Z,101885.13
2024-03-05T23:23:43.874Z,101888.75
2024-03-05T23:26:11.724Z,101886.09
2024-03-05T23:28:40.211Z,101888.03
2024-03-05T23:31:07.993Z,101896.63
2024-03-05T23:33:35.827Z,101903.41
2024-03-05T23:36:03.478Z,101907.97
2024-03-05T23:38:31.804Z,101915.81
2024-03-05T23:41:00.143Z,101919.00
2024-03-05T23:43:27.948Z,101920.56
2024-03-05T23:45:55.796Z,101917.47
2024-03-05T23:48:23.463Z,101906.75
2024-03-05T23:50:51.060Z,101909.84
2024-03-05T23:53:19.425Z,101921.81
2024-03-05T23:55:47.211Z,101928.78
2024-03-05T23:58:15.013Z,101927.03
